sensor_id;sensor_type;location;lat;lon;timestamp;P1;durP1;ratioP1;P2;durP2;ratioP2
11996;SDS011;6058;48.704;9.474;2023-05-09T00:00:27;11.80;;;8.17;;
11996;SDS011;6058;48.704;9.474;2023-05-09T00:02:55;11.33;;;7.47;;
11996;SDS011;6058;48.704;9.474;2023-05-09T00:05:22;8.70;;;7.23;;
11996;SDS011;6058;48.704;9.474;2023-05-09T00:07:50;9.03;;;7.23;;
11996;SDS011;6058;48.704;9.474;2023-05-09T00:10:17;9.53;;;7.40;;
11996;SDS011;6058;48.704;9.474;2023-05-09T00:12:44;9.70;;;7.50;;
11996;SDS011;6058;48.704;9.474;2023-05-09T00:15:13;7.90;;;6.77;;
11996;SDS011;6058;48.704;9.474;2023-05-09T00:17:40;7.40;;;6.70;;
11996;SDS011;6058;48.704;9.474;2023-05-09T00:20:10;9.17;;;7.27;;
11996;SDS011;6058;48.704;9.474;2023-05-09T00:22:37;7.60;;;6.83;;
11996;SDS011;6058;48.704;9.474;2023-05-09T00:25:07;7.77;;;6.47;;
11996;SDS011;6058;48.704;9.474;2023-05-09T00:27:34;7.20;;;6.30;;
11996;SDS011;6058;48.704;9.474;2023-05-09T00:30:03;9.53;;;8.00;;
11996;SDS011;6058;48.704;9.474;2023-05-09T00:32:31;10.37;;;6.40;;
11996;SDS011;6058;48.704;9.474;2023-05-09T00:34:58;10.53;;;7.20;;
11996;SDS011;6058;48.704;9.474;2023-05-09T00:37:25;8.43;;;7.47;;
11996;SDS011;6058;48.704;9.474;2023-05-09T00:42:22;8.47;;;7.20;;
11996;SDS011;6058;48.704;9.474;2023-05-09T00:44:49;8.20;;;7.27;;
11996;SDS011;6058;48.704;9.474;2023-05-09T00:47:16;8.13;;;7.00;;
11996;SDS011;6058;48.704;9.474;2023-05-09T00:49:43;7.70;;;7.00;;
11996;SDS011;6058;48.704;9.474;2023-05-09T00:52:10;8.97;;;6.60;;
11996;SDS011;6058;48.704;9.474;2023-05-09T00:54:37;9.30;;;6.70;;
11996;SDS011;6058;48.704;9.474;2023-05-09T00:57:05;10.07;;;6.77;;
11996;SDS011;6058;48.704;9.474;2023-05-09T00:59:33;12.40;;;7.83;;
11996;SDS011;6058;48.704;9.474;2023-05-09T01:02:00;9.13;;;8.03;;
11996;SDS011;6058;48.704;9.474;2023-05-09T01:04:27;11.10;;;7.77;;
11996;SDS011;6058;48.704;9.474;2023-05-09T01:06:57;8.57;;;7.47;;
11996;SDS011;6058;48.704;9.474;2023-05-09T01:09:28;10.90;;;8.20;;
11996;SDS011;6058;48.704;9.474;2023-05-09T01:12:01;10.93;;;8.13;;
11996;SDS011;6058;48.704;9.474;2023-05-09T01:14:36;8.47;;;7.17;;
11996;SDS011;6058;48.704;9.474;2023-05-09T01:17:04;12.27;;;9.27;;
11996;SDS011;6058;48.704;9.474;2023-05-09T01:19:41;9.67;;;8.07;;
11996;SDS011;6058;48.704;9.474;2023-05-09T01:22:15;11.80;;;8.27;;
11996;SDS011;6058;48.704;9.474;2023-05-09T01:24:53;9.60;;;8.00;;
11996;SDS011;6058;48.704;9.474;2023-05-09T01:27:30;10.47;;;8.37;;
11996;SDS011;6058;48.704;9.474;2023-05-09T01:30:00;11.93;;;7.93;;
11996;SDS011;6058;48.704;9.474;2023-05-09T01:32:29;9.83;;;7.80;;
11996;SDS011;6058;48.704;9.474;2023-05-09T01:34:58;10.20;;;8.50;;
11996;SDS011;6058;48.704;9.474;2023-05-09T01:37:27;9.20;;;7.83;;
11996;SDS011;6058;48.704;9.474;2023-05-09T01:39:56;8.57;;;7.67;;
11996;SDS011;6058;48.704;9.474;2023-05-09T01:42:24;11.10;;;8.60;;
11996;SDS011;6058;48.704;9.474;2023-05-09T01:44:53;10.73;;;8.53;;
11996;SDS011;6058;48.704;9.474;2023-05-09T01:47:22;12.87;;;9.37;;
11996;SDS011;6058;48.704;9.474;2023-05-09T01:49:50;11.97;;;9.03;;
11996;SDS011;6058;48.704;9.474;2023-05-09T01:52:18;10.87;;;8.47;;
11996;SDS011;6058;48.704;9.474;2023-05-09T01:54:45;10.30;;;8.50;;
11996;SDS011;6058;48.704;9.474;2023-05-09T01:57:13;10.57;;;9.07;;
11996;SDS011;6058;48.704;9.474;2023-05-09T01:59:42;9.10;;;7.13;;
11996;SDS011;6058;48.704;9.474;2023-05-09T02:02:09;10.23;;;8.63;;
11996;SDS011;6058;48.704;9.474;2023-05-09T02:04:38;10.50;;;7.67;;
11996;SDS011;6058;48.704;9.474;2023-05-09T02:07:07;9.33;;;7.40;;
11996;SDS011;6058;48.704;9.474;2023-05-09T02:09:34;8.37;;;6.93;;
11996;SDS011;6058;48.704;9.474;2023-05-09T02:12:01;9.93;;;6.97;;
11996;SDS011;6058;48.704;9.474;2023-05-09T02:14:29;7.50;;;6.60;;
11996;SDS011;6058;48.704;9.474;2023-05-09T02:16:56;9.47;;;6.53;;
11996;SDS011;6058;48.704;9.474;2023-05-09T02:19:23;8.37;;;7.50;;
11996;SDS011;6058;48.704;9.474;2023-05-09T02:21:52;8.90;;;8.00;;
11996;SDS011;6058;48.704;9.474;2023-05-09T02:24:19;10.90;;;7.60;;
11996;SDS011;6058;48.704;9.474;2023-05-09T02:26:46;8.77;;;7.83;;
11996;SDS011;6058;48.704;9.474;2023-05-09T02:29:15;10.13;;;7.67;;
11996;SDS011;6058;48.704;9.474;2023-05-09T02:31:42;9.40;;;8.43;;
11996;SDS011;6058;48.704;9.474;2023-05-09T02:34:11;7.97;;;6.93;;
11996;SDS011;6058;48.704;9.474;2023-05-09T02:36:39;14.03;;;7.80;;
11996;SDS011;6058;48.704;9.474;2023-05-09T02:39:07;7.23;;;5.70;;
11996;SDS011;6058;48.704;9.474;2023-05-09T02:41:35;9.27;;;7.23;;
11996;SDS011;6058;48.704;9.474;2023-05-09T02:44:02;10.47;;;8.67;;
11996;SDS011;6058;48.704;9.474;2023-05-09T02:46:30;10.50;;;8.90;;
11996;SDS011;6058;48.704;9.474;2023-05-09T02:48:57;8.30;;;7.40;;
11996;SDS011;6058;48.704;9.474;2023-05-09T02:51:24;10.07;;;9.00;;
11996;SDS011;6058;48.704;9.474;2023-05-09T02:53:51;13.17;;;7.97;;
11996;SDS011;6058;48.704;9.474;2023-05-09T02:56:20;12.63;;;9.20;;
11996;SDS011;6058;48.704;9.474;2023-05-09T02:58:47;10.00;;;8.10;;
11996;SDS011;6058;48.704;9.474;2023-05-09T03:01:15;11.30;;;8.80;;
11996;SDS011;6058;48.704;9.474;2023-05-09T03:03:42;10.07;;;8.13;;
11996;SDS011;6058;48.704;9.474;2023-05-09T03:06:10;8.70;;;7.63;;
11996;SDS011;6058;48.704;9.474;2023-05-09T03:08:38;10.83;;;8.27;;
11996;SDS011;6058;48.704;9.474;2023-05-09T03:11:05;12.07;;;9.33;;
11996;SDS011;6058;48.704;9.474;2023-05-09T03:13:33;10.07;;;8.53;;
11996;SDS011;6058;48.704;9.474;2023-05-09T03:16:00;11.90;;;8.37;;
11996;SDS011;6058;48.704;9.474;2023-05-09T03:18:27;9.83;;;8.83;;
11996;SDS011;6058;48.704;9.474;2023-05-09T03:20:55;10.13;;;8.67;;
11996;SDS011;6058;48.704;9.474;2023-05-09T03:23:22;12.07;;;9.13;;
11996;SDS011;6058;48.704;9.474;2023-05-09T03:25:49;14.90;;;9.63;;
11996;SDS011;6058;48.704;9.474;2023-05-09T03:28:16;9.67;;;8.17;;
11996;SDS011;6058;48.704;9.474;2023-05-09T03:30:45;11.80;;;9.47;;
11996;SDS011;6058;48.704;9.474;2023-05-09T03:33:12;9.23;;;8.13;;
11996;SDS011;6058;48.704;9.474;2023-05-09T03:35:39;10.43;;;7.90;;
11996;SDS011;6058;48.704;9.474;2023-05-09T03:38:06;9.27;;;7.63;;
11996;SDS011;6058;48.704;9.474;2023-05-09T03:40:33;12.07;;;8.27;;
11996;SDS011;6058;48.704;9.474;2023-05-09T03:43:01;10.53;;;7.60;;
11996;SDS011;6058;48.704;9.474;2023-05-09T03:45:28;10.13;;;7.70;;
11996;SDS011;6058;48.704;9.474;2023-05-09T03:47:56;11.43;;;7.70;;
11996;SDS011;6058;48.704;9.474;2023-05-09T03:50:23;10.93;;;8.43;;
11996;SDS011;6058;48.704;9.474;2023-05-09T03:52:50;9.63;;;7.67;;
11996;SDS011;6058;48.704;9.474;2023-05-09T03:55:19;10.53;;;7.73;;
11996;SDS011;6058;48.704;9.474;2023-05-09T03:57:47;8.77;;;7.87;;
11996;SDS011;6058;48.704;9.474;2023-05-09T04:00:15;10.07;;;8.63;;
11996;SDS011;6058;48.704;9.474;2023-05-09T04:02:42;11.50;;;7.17;;
11996;SDS011;6058;48.704;9.474;2023-05-09T04:05:10;9.77;;;8.60;;
11996;SDS011;6058;48.704;9.474;2023-05-09T04:07:37;9.73;;;7.77;;
11996;SDS011;6058;48.704;9.474;2023-05-09T04:10:05;10.57;;;7.90;;
11996;SDS011;6058;48.704;9.474;2023-05-09T04:12:32;9.13;;;7.43;;
11996;SDS011;6058;48.704;9.474;2023-05-09T04:15:00;9.67;;;7.30;;
11996;SDS011;6058;48.704;9.474;2023-05-09T04:17:27;9.70;;;7.70;;
11996;SDS011;6058;48.704;9.474;2023-05-09T04:19:55;8.00;;;7.00;;
11996;SDS011;6058;48.704;9.474;2023-05-09T04:22:24;13.23;;;8.40;;
11996;SDS011;6058;48.704;9.474;2023-05-09T04:24:51;8.23;;;7.40;;
11996;SDS011;6058;48.704;9.474;2023-05-09T04:27:18;7.97;;;7.10;;
11996;SDS011;6058;48.704;9.474;2023-05-09T04:29:45;8.20;;;7.40;;
11996;SDS011;6058;48.704;9.474;2023-05-09T04:32:13;15.07;;;9.27;;
11996;SDS011;6058;48.704;9.474;2023-05-09T04:34:40;12.83;;;9.40;;
11996;SDS011;6058;48.704;9.474;2023-05-09T04:37:07;13.10;;;8.67;;
11996;SDS011;6058;48.704;9.474;2023-05-09T04:39:36;10.00;;;8.33;;
11996;SDS011;6058;48.704;9.474;2023-05-09T04:42:03;10.50;;;8.33;;
11996;SDS011;6058;48.704;9.474;2023-05-09T04:44:30;13.20;;;9.43;;
11996;SDS011;6058;48.704;9.474;2023-05-09T04:46:59;11.83;;;9.63;;
11996;SDS011;6058;48.704;9.474;2023-05-09T04:49:26;12.50;;;10.03;;
11996;SDS011;6058;48.704;9.474;2023-05-09T04:51:53;12.50;;;9.53;;
11996;SDS011;6058;48.704;9.474;2023-05-09T04:54:21;11.87;;;10.33;;
11996;SDS011;6058;48.704;9.474;2023-05-09T04:56:49;11.93;;;10.03;;
11996;SDS011;6058;48.704;9.474;2023-05-09T04:59:16;18.30;;;10.40;;
11996;SDS011;6058;48.704;9.474;2023-05-09T05:01:43;17.20;;;10.80;;
11996;SDS011;6058;48.704;9.474;2023-05-09T05:04:10;12.43;;;9.93;;
11996;SDS011;6058;48.704;9.474;2023-05-09T05:06:38;13.57;;;10.40;;
11996;SDS011;6058;48.704;9.474;2023-05-09T05:09:05;13.97;;;10.93;;
11996;SDS011;6058;48.704;9.474;2023-05-09T05:11:32;14.90;;;11.80;;
11996;SDS011;6058;48.704;9.474;2023-05-09T05:14:00;15.10;;;11.20;;
11996;SDS011;6058;48.704;9.474;2023-05-09T05:16:27;14.10;;;11.90;;
11996;SDS011;6058;48.704;9.474;2023-05-09T05:18:54;15.47;;;11.63;;
11996;SDS011;6058;48.704;9.474;2023-05-09T05:21:21;14.93;;;11.70;;
11996;SDS011;6058;48.704;9.474;2023-05-09T05:23:48;14.43;;;11.63;;
11996;SDS011;6058;48.704;9.474;2023-05-09T05:26:15;12.57;;;9.53;;
11996;SDS011;6058;48.704;9.474;2023-05-09T05:28:43;14.70;;;11.80;;
11996;SDS011;6058;48.704;9.474;2023-05-09T05:31:11;14.23;;;10.83;;
11996;SDS011;6058;48.704;9.474;2023-05-09T05:33:38;12.30;;;10.33;;
11996;SDS011;6058;48.704;9.474;2023-05-09T05:36:06;15.83;;;11.47;;
11996;SDS011;6058;48.704;9.474;2023-05-09T05:38:33;16.43;;;12.00;;
11996;SDS011;6058;48.704;9.474;2023-05-09T05:41:00;14.30;;;10.70;;
11996;SDS011;6058;48.704;9.474;2023-05-09T05:43:27;14.90;;;10.53;;
11996;SDS011;6058;48.704;9.474;2023-05-09T05:45:54;17.07;;;12.40;;
11996;SDS011;6058;48.704;9.474;2023-05-09T05:48:23;19.87;;;13.67;;
11996;SDS011;6058;48.704;9.474;2023-05-09T05:50:50;18.73;;;13.90;;
11996;SDS011;6058;48.704;9.474;2023-05-09T05:53:17;16.67;;;12.23;;
11996;SDS011;6058;48.704;9.474;2023-05-09T05:55:44;17.50;;;13.57;;
11996;SDS011;6058;48.704;9.474;2023-05-09T05:58:13;22.10;;;15.73;;
11996;SDS011;6058;48.704;9.474;2023-05-09T06:00:40;20.00;;;15.53;;
11996;SDS011;6058;48.704;9.474;2023-05-09T06:03:07;20.97;;;14.80;;
11996;SDS011;6058;48.704;9.474;2023-05-09T06:05:41;19.07;;;13.87;;
11996;SDS011;6058;48.704;9.474;2023-05-09T06:08:09;22.27;;;15.97;;
11996;SDS011;6058;48.704;9.474;2023-05-09T06:10:36;23.53;;;15.37;;
11996;SDS011;6058;48.704;9.474;2023-05-09T06:13:03;20.70;;;15.50;;
11996;SDS011;6058;48.704;9.474;2023-05-09T06:15:30;20.10;;;14.33;;
11996;SDS011;6058;48.704;9.474;2023-05-09T06:17:57;21.40;;;16.20;;
11996;SDS011;6058;48.704;9.474;2023-05-09T06:20:25;22.77;;;16.53;;
11996;SDS011;6058;48.704;9.474;2023-05-09T06:22:54;21.03;;;16.53;;
11996;SDS011;6058;48.704;9.474;2023-05-09T06:25:21;21.23;;;16.53;;
11996;SDS011;6058;48.704;9.474;2023-05-09T06:27:48;21.63;;;16.00;;
11996;SDS011;6058;48.704;9.474;2023-05-09T06:30:15;21.63;;;16.27;;
11996;SDS011;6058;48.704;9.474;2023-05-09T06:32:42;22.03;;;16.77;;
11996;SDS011;6058;48.704;9.474;2023-05-09T06:35:10;21.30;;;16.13;;
11996;SDS011;6058;48.704;9.474;2023-05-09T06:37:37;20.63;;;15.97;;
11996;SDS011;6058;48.704;9.474;2023-05-09T06:40:06;21.57;;;15.33;;
11996;SDS011;6058;48.704;9.474;2023-05-09T06:42:33;25.40;;;17.23;;
11996;SDS011;6058;48.704;9.474;2023-05-09T06:45:00;23.70;;;17.93;;
11996;SDS011;6058;48.704;9.474;2023-05-09T06:49:56;21.00;;;17.43;;
11996;SDS011;6058;48.704;9.474;2023-05-09T06:52:23;23.30;;;17.27;;
11996;SDS011;6058;48.704;9.474;2023-05-09T06:54:50;18.67;;;14.93;;
11996;SDS011;6058;48.704;9.474;2023-05-09T06:57:19;22.47;;;16.77;;
11996;SDS011;6058;48.704;9.474;2023-05-09T06:59:46;23.30;;;15.93;;
11996;SDS011;6058;48.704;9.474;2023-05-09T07:02:14;21.07;;;16.40;;
11996;SDS011;6058;48.704;9.474;2023-05-09T07:04:41;19.67;;;15.70;;
11996;SDS011;6058;48.704;9.474;2023-05-09T07:07:08;18.17;;;14.03;;
11996;SDS011;6058;48.704;9.474;2023-05-09T07:09:35;19.73;;;16.27;;
11996;SDS011;6058;48.704;9.474;2023-05-09T07:12:02;22.73;;;16.27;;
11996;SDS011;6058;48.704;9.474;2023-05-09T07:14:31;21.27;;;16.73;;
11996;SDS011;6058;48.704;9.474;2023-05-09T07:16:58;23.17;;;16.07;;
11996;SDS011;6058;48.704;9.474;2023-05-09T07:19:25;19.53;;;16.03;;
11996;SDS011;6058;48.704;9.474;2023-05-09T07:21:52;17.93;;;14.80;;
11996;SDS011;6058;48.704;9.474;2023-05-09T07:24:19;20.67;;;14.63;;
11996;SDS011;6058;48.704;9.474;2023-05-09T07:26:46;20.37;;;15.80;;
11996;SDS011;6058;48.704;9.474;2023-05-09T07:29:13;19.53;;;15.23;;
11996;SDS011;6058;48.704;9.474;2023-05-09T07:31:42;16.80;;;13.20;;
11996;SDS011;6058;48.704;9.474;2023-05-09T07:34:10;16.33;;;14.27;;
11996;SDS011;6058;48.704;9.474;2023-05-09T07:36:37;19.77;;;14.07;;
11996;SDS011;6058;48.704;9.474;2023-05-09T07:39:04;16.70;;;13.80;;
11996;SDS011;6058;48.704;9.474;2023-05-09T07:41:32;19.40;;;14.43;;
11996;SDS011;6058;48.704;9.474;2023-05-09T07:43:59;17.60;;;13.70;;
11996;SDS011;6058;48.704;9.474;2023-05-09T07:46:26;17.20;;;14.13;;
11996;SDS011;6058;48.704;9.474;2023-05-09T07:48:54;15.70;;;13.03;;
11996;SDS011;6058;48.704;9.474;2023-05-09T07:51:21;18.17;;;14.50;;
11996;SDS011;6058;48.704;9.474;2023-05-09T07:53:48;18.03;;;13.90;;
11996;SDS011;6058;48.704;9.474;2023-05-09T07:56:16;17.60;;;14.27;;
11996;SDS011;6058;48.704;9.474;2023-05-09T07:58:43;17.40;;;14.20;;
11996;SDS011;6058;48.704;9.474;2023-05-09T08:01:10;19.70;;;15.17;;
11996;SDS011;6058;48.704;9.474;2023-05-09T08:03:37;17.10;;;13.70;;
11996;SDS011;6058;48.704;9.474;2023-05-09T08:06:05;14.93;;;12.93;;
11996;SDS011;6058;48.704;9.474;2023-05-09T08:08:33;16.27;;;13.70;;
11996;SDS011;6058;48.704;9.474;2023-05-09T08:11:00;20.60;;;14.30;;
11996;SDS011;6058;48.704;9.474;2023-05-09T08:13:27;14.77;;;12.63;;
11996;SDS011;6058;48.704;9.474;2023-05-09T08:15:55;18.10;;;13.70;;
11996;SDS011;6058;48.704;9.474;2023-05-09T08:18:22;16.40;;;12.53;;
11996;SDS011;6058;48.704;9.474;2023-05-09T08:20:49;14.30;;;12.20;;
11996;SDS011;6058;48.704;9.474;2023-05-09T08:23:17;20.30;;;13.63;;
11996;SDS011;6058;48.704;9.474;2023-05-09T08:25:44;16.17;;;13.00;;
11996;SDS011;6058;48.704;9.474;2023-05-09T08:28:11;15.30;;;13.63;;
11996;SDS011;6058;48.704;9.474;2023-05-09T08:30:38;17.53;;;13.13;;
11996;SDS011;6058;48.704;9.474;2023-05-09T08:33:05;14.17;;;12.23;;
11996;SDS011;6058;48.704;9.474;2023-05-09T08:35:33;14.10;;;12.47;;
11996;SDS011;6058;48.704;9.474;2023-05-09T08:38:00;16.03;;;12.90;;
11996;SDS011;6058;48.704;9.474;2023-05-09T08:40:29;14.50;;;11.30;;
11996;SDS011;6058;48.704;9.474;2023-05-09T08:42:56;14.47;;;11.90;;
11996;SDS011;6058;48.704;9.474;2023-05-09T08:45:24;15.43;;;12.20;;
11996;SDS011;6058;48.704;9.474;2023-05-09T08:47:52;15.40;;;11.60;;
11996;SDS011;6058;48.704;9.474;2023-05-09T08:50:20;13.67;;;11.27;;
11996;SDS011;6058;48.704;9.474;2023-05-09T08:52:47;12.37;;;10.13;;
11996;SDS011;6058;48.704;9.474;2023-05-09T08:55:14;13.30;;;11.07;;
11996;SDS011;6058;48.704;9.474;2023-05-09T08:57:43;13.37;;;10.33;;
11996;SDS011;6058;48.704;9.474;2023-05-09T09:00:11;12.67;;;9.93;;
11996;SDS011;6058;48.704;9.474;2023-05-09T09:02:39;11.37;;;9.83;;
11996;SDS011;6058;48.704;9.474;2023-05-09T09:05:07;12.20;;;10.10;;
11996;SDS011;6058;48.704;9.474;2023-05-09T09:07:34;12.90;;;10.00;;
11996;SDS011;6058;48.704;9.474;2023-05-09T09:10:02;11.80;;;8.90;;
11996;SDS011;6058;48.704;9.474;2023-05-09T09:12:30;9.97;;;8.67;;
11996;SDS011;6058;48.704;9.474;2023-05-09T09:15:01;13.03;;;9.63;;
11996;SDS011;6058;48.704;9.474;2023-05-09T09:17:29;11.03;;;8.57;;
11996;SDS011;6058;48.704;9.474;2023-05-09T09:19:57;12.10;;;10.63;;
11996;SDS011;6058;48.704;9.474;2023-05-09T09:22:31;12.13;;;9.80;;
11996;SDS011;6058;48.704;9.474;2023-05-09T09:24:58;12.97;;;9.77;;
11996;SDS011;6058;48.704;9.474;2023-05-09T09:27:25;13.67;;;9.13;;
11996;SDS011;6058;48.704;9.474;2023-05-09T09:29:52;8.87;;;7.80;;
11996;SDS011;6058;48.704;9.474;2023-05-09T09:32:21;7.67;;;6.40;;
11996;SDS011;6058;48.704;9.474;2023-05-09T09:35:02;9.70;;;7.70;;
11996;SDS011;6058;48.704;9.474;2023-05-09T09:37:30;11.43;;;8.10;;
11996;SDS011;6058;48.704;9.474;2023-05-09T09:39:59;7.80;;;6.93;;
11996;SDS011;6058;48.704;9.474;2023-05-09T09:42:26;10.63;;;7.03;;
11996;SDS011;6058;48.704;9.474;2023-05-09T09:44:55;7.47;;;6.53;;
11996;SDS011;6058;48.704;9.474;2023-05-09T09:47:30;5.30;;;4.80;;
11996;SDS011;6058;48.704;9.474;2023-05-09T09:49:57;4.50;;;4.10;;
11996;SDS011;6058;48.704;9.474;2023-05-09T09:52:34;6.00;;;5.03;;
11996;SDS011;6058;48.704;9.474;2023-05-09T09:55:02;7.40;;;5.23;;
11996;SDS011;6058;48.704;9.474;2023-05-09T09:57:32;8.10;;;5.47;;
11996;SDS011;6058;48.704;9.474;2023-05-09T10:00:01;4.67;;;4.27;;
11996;SDS011;6058;48.704;9.474;2023-05-09T10:02:28;5.90;;;5.40;;
11996;SDS011;6058;48.704;9.474;2023-05-09T10:04:58;6.67;;;5.80;;
11996;SDS011;6058;48.704;9.474;2023-05-09T10:07:32;8.03;;;5.80;;
11996;SDS011;6058;48.704;9.474;2023-05-09T10:09:59;8.03;;;5.37;;
11996;SDS011;6058;48.704;9.474;2023-05-09T10:12:30;7.03;;;6.33;;
11996;SDS011;6058;48.704;9.474;2023-05-09T10:14:59;6.60;;;5.33;;
11996;SDS011;6058;48.704;9.474;2023-05-09T10:17:26;6.97;;;5.50;;
11996;SDS011;6058;48.704;9.474;2023-05-09T10:19:57;6.23;;;5.10;;
11996;SDS011;6058;48.704;9.474;2023-05-09T10:22:26;6.43;;;5.20;;
11996;SDS011;6058;48.704;9.474;2023-05-09T10:24:55;7.37;;;5.63;;
11996;SDS011;6058;48.704;9.474;2023-05-09T10:27:26;5.77;;;5.20;;
11996;SDS011;6058;48.704;9.474;2023-05-09T10:29:55;6.00;;;4.97;;
11996;SDS011;6058;48.704;9.474;2023-05-09T10:32:25;7.57;;;5.27;;
11996;SDS011;6058;48.704;9.474;2023-05-09T10:34:53;7.37;;;5.50;;
11996;SDS011;6058;48.704;9.474;2023-05-09T10:37:24;6.43;;;5.83;;
11996;SDS011;6058;48.704;9.474;2023-05-09T10:39:51;6.27;;;5.67;;
11996;SDS011;6058;48.704;9.474;2023-05-09T10:42:19;5.80;;;5.30;;
11996;SDS011;6058;48.704;9.474;2023-05-09T10:44:47;10.60;;;5.33;;
11996;SDS011;6058;48.704;9.474;2023-05-09T10:47:15;6.77;;;6.07;;
11996;SDS011;6058;48.704;9.474;2023-05-09T10:49:42;5.83;;;5.20;;
11996;SDS011;6058;48.704;9.474;2023-05-09T10:52:10;7.03;;;5.97;;
11996;SDS011;6058;48.704;9.474;2023-05-09T10:54:38;6.93;;;6.17;;
11996;SDS011;6058;48.704;9.474;2023-05-09T10:57:07;7.50;;;6.43;;
11996;SDS011;6058;48.704;9.474;2023-05-09T10:59:36;8.20;;;5.47;;
11996;SDS011;6058;48.704;9.474;2023-05-09T11:02:04;6.50;;;5.53;;
11996;SDS011;6058;48.704;9.474;2023-05-09T11:04:31;6.53;;;5.93;;
11996;SDS011;6058;48.704;9.474;2023-05-09T11:06:59;7.97;;;5.90;;
11996;SDS011;6058;48.704;9.474;2023-05-09T11:09:27;8.83;;;5.60;;
11996;SDS011;6058;48.704;9.474;2023-05-09T11:11:59;7.27;;;6.57;;
11996;SDS011;6058;48.704;9.474;2023-05-09T11:14:31;8.47;;;6.70;;
11996;SDS011;6058;48.704;9.474;2023-05-09T11:16:58;6.50;;;5.63;;
11996;SDS011;6058;48.704;9.474;2023-05-09T11:19:35;6.87;;;5.77;;
11996;SDS011;6058;48.704;9.474;2023-05-09T11:22:10;7.90;;;6.90;;
11996;SDS011;6058;48.704;9.474;2023-05-09T11:24:38;6.73;;;6.03;;
11996;SDS011;6058;48.704;9.474;2023-05-09T11:27:14;8.57;;;6.93;;
11996;SDS011;6058;48.704;9.474;2023-05-09T11:29:44;7.47;;;6.30;;
11996;SDS011;6058;48.704;9.474;2023-05-09T11:32:12;5.90;;;5.40;;
11996;SDS011;6058;48.704;9.474;2023-05-09T11:34:41;8.43;;;7.30;;
11996;SDS011;6058;48.704;9.474;2023-05-09T11:37:09;7.63;;;6.60;;
11996;SDS011;6058;48.704;9.474;2023-05-09T11:42:19;7.10;;;6.07;;
11996;SDS011;6058;48.704;9.474;2023-05-09T11:44:47;8.33;;;6.10;;
11996;SDS011;6058;48.704;9.474;2023-05-09T11:47:14;6.00;;;5.20;;
11996;SDS011;6058;48.704;9.474;2023-05-09T11:49:42;5.40;;;4.90;;
11996;SDS011;6058;48.704;9.474;2023-05-09T11:52:10;7.10;;;5.37;;
11996;SDS011;6058;48.704;9.474;2023-05-09T11:54:37;5.30;;;4.77;;
11996;SDS011;6058;48.704;9.474;2023-05-09T11:57:04;5.73;;;5.13;;
11996;SDS011;6058;48.704;9.474;2023-05-09T11:59:33;8.07;;;4.77;;
11996;SDS011;6058;48.704;9.474;2023-05-09T12:02:01;5.10;;;4.30;;
11996;SDS011;6058;48.704;9.474;2023-05-09T12:04:29;5.13;;;4.63;;
11996;SDS011;6058;48.704;9.474;2023-05-09T12:06:57;5.23;;;4.70;;
11996;SDS011;6058;48.704;9.474;2023-05-09T12:09:24;4.73;;;4.33;;
11996;SDS011;6058;48.704;9.474;2023-05-09T12:11:51;4.50;;;3.77;;
11996;SDS011;6058;48.704;9.474;2023-05-09T12:14:25;4.63;;;4.23;;
11996;SDS011;6058;48.704;9.474;2023-05-09T12:16:54;4.00;;;3.60;;
11996;SDS011;6058;48.704;9.474;2023-05-09T12:19:21;4.10;;;3.80;;
11996;SDS011;6058;48.704;9.474;2023-05-09T12:21:52;3.47;;;3.27;;
11996;SDS011;6058;48.704;9.474;2023-05-09T12:24:20;4.10;;;3.70;;
11996;SDS011;6058;48.704;9.474;2023-05-09T12:26:47;3.83;;;3.53;;
11996;SDS011;6058;48.704;9.474;2023-05-09T12:29:15;4.87;;;3.20;;
11996;SDS011;6058;48.704;9.474;2023-05-09T12:31:45;4.90;;;4.03;;
11996;SDS011;6058;48.704;9.474;2023-05-09T12:34:13;3.70;;;3.40;;
11996;SDS011;6058;48.704;9.474;2023-05-09T12:36:42;3.80;;;3.50;;
11996;SDS011;6058;48.704;9.474;2023-05-09T12:39:14;4.03;;;3.53;;
11996;SDS011;6058;48.704;9.474;2023-05-09T12:41:42;4.43;;;3.13;;
11996;SDS011;6058;48.704;9.474;2023-05-09T12:44:16;3.07;;;2.87;;
11996;SDS011;6058;48.704;9.474;2023-05-09T12:46:51;4.20;;;2.70;;
11996;SDS011;6058;48.704;9.474;2023-05-09T12:49:20;3.50;;;3.00;;
11996;SDS011;6058;48.704;9.474;2023-05-09T12:51:48;3.33;;;3.03;;
11996;SDS011;6058;48.704;9.474;2023-05-09T12:54:18;2.97;;;2.77;;
11996;SDS011;6058;48.704;9.474;2023-05-09T12:56:46;3.03;;;2.83;;
11996;SDS011;6058;48.704;9.474;2023-05-09T12:59:14;3.57;;;2.60;;
11996;SDS011;6058;48.704;9.474;2023-05-09T13:01:49;3.77;;;2.80;;
11996;SDS011;6058;48.704;9.474;2023-05-09T13:04:18;4.23;;;2.63;;
11996;SDS011;6058;48.704;9.474;2023-05-09T13:06:50;2.63;;;2.43;;
11996;SDS011;6058;48.704;9.474;2023-05-09T13:09:19;3.93;;;2.90;;
11996;SDS011;6058;48.704;9.474;2023-05-09T13:11:47;3.30;;;2.83;;
11996;SDS011;6058;48.704;9.474;2023-05-09T13:14:15;3.57;;;3.27;;
11996;SDS011;6058;48.704;9.474;2023-05-09T13:16:42;3.47;;;2.97;;
11996;SDS011;6058;48.704;9.474;2023-05-09T13:19:10;3.00;;;2.80;;
11996;SDS011;6058;48.704;9.474;2023-05-09T13:21:37;3.70;;;3.00;;
11996;SDS011;6058;48.704;9.474;2023-05-09T13:24:06;3.23;;;2.93;;
11996;SDS011;6058;48.704;9.474;2023-05-09T13:26:33;3.80;;;3.37;;
11996;SDS011;6058;48.704;9.474;2023-05-09T13:29:00;3.67;;;3.27;;
11996;SDS011;6058;48.704;9.474;2023-05-09T13:31:27;3.20;;;2.90;;
11996;SDS011;6058;48.704;9.474;2023-05-09T13:36:23;3.93;;;3.20;;
11996;SDS011;6058;48.704;9.474;2023-05-09T13:38:50;3.37;;;3.13;;
11996;SDS011;6058;48.704;9.474;2023-05-09T13:41:19;2.63;;;2.43;;
11996;SDS011;6058;48.704;9.474;2023-05-09T13:43:47;7.43;;;2.80;;
11996;SDS011;6058;48.704;9.474;2023-05-09T13:46:15;3.27;;;2.97;;
11996;SDS011;6058;48.704;9.474;2023-05-09T13:48:42;3.60;;;3.30;;
11996;SDS011;6058;48.704;9.474;2023-05-09T13:51:09;2.67;;;2.47;;
11996;SDS011;6058;48.704;9.474;2023-05-09T13:53:36;3.83;;;2.30;;
11996;SDS011;6058;48.704;9.474;2023-05-09T13:56:05;2.80;;;2.60;;
11996;SDS011;6058;48.704;9.474;2023-05-09T13:58:34;2.60;;;2.40;;
11996;SDS011;6058;48.704;9.474;2023-05-09T14:01:01;4.43;;;2.90;;
11996;SDS011;6058;48.704;9.474;2023-05-09T14:03:28;2.60;;;2.40;;
11996;SDS011;6058;48.704;9.474;2023-05-09T14:05:57;2.70;;;2.50;;
11996;SDS011;6058;48.704;9.474;2023-05-09T14:08:24;2.70;;;2.50;;
11996;SDS011;6058;48.704;9.474;2023-05-09T14:10:52;2.23;;;2.03;;
11996;SDS011;6058;48.704;9.474;2023-05-09T14:13:20;2.50;;;2.30;;
11996;SDS011;6058;48.704;9.474;2023-05-09T14:15:48;2.03;;;1.90;;
11996;SDS011;6058;48.704;9.474;2023-05-09T14:18:15;1.95;;;1.85;;
11996;SDS011;6058;48.704;9.474;2023-05-09T14:20:42;4.83;;;2.33;;
11996;SDS011;6058;48.704;9.474;2023-05-09T14:23:10;1.97;;;1.87;;
11996;SDS011;6058;48.704;9.474;2023-05-09T14:25:39;2.03;;;1.80;;
11996;SDS011;6058;48.704;9.474;2023-05-09T14:28:06;2.37;;;2.20;;
11996;SDS011;6058;48.704;9.474;2023-05-09T14:30:33;2.87;;;1.80;;
11996;SDS011;6058;48.704;9.474;2023-05-09T14:33:08;1.87;;;1.77;;
11996;SDS011;6058;48.704;9.474;2023-05-09T14:35:35;2.80;;;1.60;;
11996;SDS011;6058;48.704;9.474;2023-05-09T14:38:02;1.90;;;1.80;;
11996;SDS011;6058;48.704;9.474;2023-05-09T14:40:29;1.90;;;1.80;;
11996;SDS011;6058;48.704;9.474;2023-05-09T14:42:57;2.00;;;1.90;;
11996;SDS011;6058;48.704;9.474;2023-05-09T14:45:26;1.80;;;1.70;;
11996;SDS011;6058;48.704;9.474;2023-05-09T14:47:53;2.07;;;1.97;;
11996;SDS011;6058;48.704;9.474;2023-05-09T14:50:22;1.70;;;1.60;;
11996;SDS011;6058;48.704;9.474;2023-05-09T14:52:49;2.23;;;1.60;;
11996;SDS011;6058;48.704;9.474;2023-05-09T14:55:17;2.30;;;1.90;;
11996;SDS011;6058;48.704;9.474;2023-05-09T14:57:45;2.23;;;2.13;;
11996;SDS011;6058;48.704;9.474;2023-05-09T15:00:12;4.67;;;2.27;;
11996;SDS011;6058;48.704;9.474;2023-05-09T15:02:40;3.60;;;2.17;;
11996;SDS011;6058;48.704;9.474;2023-05-09T15:05:08;3.10;;;1.93;;